Goldbond, Virginia
Current Conditions -  °F | °C
As of 2:55 AM on Saturday 20 Dec 2014 (Local Time) from KPSK Reporting Station
Clear Clear  
Wind Chill: 28°   Ceiling: Unl
Heat Index: 28°   Visibility: 10mi
Dew Point: 26°   Wind: 0mph
Humidity: 90%   Direction: NA
Pressure: 30.17"   Gusts: NA
Location:  37.38°N, 80.66°W
Report Text: KPSK 200755Z AUTO 00000KT 10SM CLR M02/M03 A3017 RMK AO2 T10211035
Loading
Personal Weather Stations






























Interactive Weather Map New forecast layout! Learn more

10-Day Weather Forecast

Advertisements
Track Severe Weather on mobile